Airfield :
LOGIN :

Register | Disclaimer

   EN    FR    IT 

 










Legend :    VFR   Marginal VFR   IFR   Intensive IFR   Very Intensive IFR
Visi :
Ceiling :
>= 8 km
>= 3000ft
5 to 8 km
1000 to 3000 ft
1500m to 5 km
500 to 1000 ft
800 to 1500m
200 to 500 ft
< 800m
< 200 ft
Symbols :   Thunderstorms  Fog  Heavy snow  Heavy precipitations  Wind > 20 kt
SIGMETs :     Misc.  Thunderstorms  Icing  Turbulence  Mountain Waves  Volcanic Ashes







- Airport Elevation : 1234 ft
- IATA code : LUX


ELLX - Luxembourg Findel

CURRENT METAR :
  • 240820Z 26015KT 9999 SCT025 BKN030 16/10 Q1019 NOSIG

EXPIRED METARs :
  • 240750Z 25016KT 9999 FEW025 BKN030 16/10 Q1019 NOSIG
  • 240720Z 25013KT 220V280 9999 FEW022 BKN031 16/10 Q1019 NOSIG
  • 240650Z 25010KT 200V270 9999 FEW022 BKN031 15/10 Q1019 NOSIG
  • 240620Z 25010KT 210V270 9999 BKN031 15/10 Q1019 NOSIG
  • 240550Z 24008KT 9999 BKN030 14/11 Q1019 NOSIG

TAF TAF ELLX
Valid from the 24 at 06:00 until the 25 at 12:00 UTC


240500Z 2406/2512 24009KT 9999 SCT035
TEMPO 2406/2412 BKN030
BECMG 2503/2505 BKN025
TEMPO 2505/2512 7000 -RADZ SCT009 BKN020
ATIS : +352 4798 27300
Met : +352 4798 27010 / 27050
No reported NOTAMs for that airfield.



MET'MAP, your aeronautical weather chart ! - Copyright ORBIFLY December 2007 - Disclaimer

ORBIFLY MET'MAP TEAM :

Programming & Development : Alexandra Zaïnal
Concept & Development : Baudouin d'Aumeries
Co-Development & Prog : Marc-Olivier Méhu
Technical & hardware support : Manuel Goepfert

Contact : metmap@orbifly.com




SOURCES & CREDITS :

   NOAA